Time;durP1;ratioP1;P1;durP2;ratioP2;P2;SDS_P1;SDS_P2;PMS_P1;PMS_P2;Temp;Humidity;BMP_temperature;BMP_pressure;BME280_temperature;BME280_humidity;BME280_pressure;Samples;Min_cycle;Max_cycle;Signal;HPM_P1;HPM_P2
2021/04/27 00:00:16;;;;;;;15.53;7.05;;;;;;;5.10;52.71;100182.02;1760311;81;21330;-68
2021/04/27 00:02:44;;;;;;;16.17;7.10;;;;;;;5.11;52.88;100176.08;1726432;83;21062;-67
2021/04/27 00:05:14;;;;;;;15.53;6.97;;;;;;;5.10;52.99;100182.02;1747170;82;21180;-69
2021/04/27 00:07:42;;;;;;;16.52;6.65;;;;;;;5.05;53.14;100184.91;1746908;82;21787;-68
2021/04/27 00:10:11;;;;;;;14.78;6.70;;;;;;;5.03;53.23;100185.58;1742886;82;21093;-68
2021/04/27 00:12:38;;;;;;;15.88;7.17;;;;;;;4.98;53.45;100182.52;1730461;83;21078;-69
2021/04/27 00:15:10;;;;;;;19.92;8.58;;;;;;;4.95;53.74;100182.85;1730338;83;21094;-67
2021/04/27 00:17:38;;;;;;;17.52;8.38;;;;;;;4.93;53.94;100181.66;1729033;83;21121;-67
2021/04/27 00:20:08;;;;;;;18.70;9.05;;;;;;;4.92;54.04;100183.19;1730351;82;21089;-69
2021/04/27 00:22:36;;;;;;;18.37;8.63;;;;;;;4.92;54.17;100191.33;1721874;82;21649;-69
2021/04/27 00:25:06;;;;;;;17.82;9.08;;;;;;;4.88;54.24;100185.38;1700439;84;21233;-69
2021/04/27 00:27:34;;;;;;;20.43;9.08;;;;;;;4.83;54.37;100190.46;1700535;84;21245;-69
2021/04/27 00:30:02;;;;;;;17.42;8.18;;;;;;;4.77;54.82;100208.26;1700322;84;21070;-68
2021/04/27 00:32:29;;;;;;;14.70;7.15;;;;;;;4.67;55.18;100204.84;1700568;84;21799;-68
2021/04/27 00:34:57;;;;;;;11.65;5.53;;;;;;;4.66;55.29;100211.78;1700432;84;21324;-69
2021/04/27 00:37:24;;;;;;;12.98;5.05;;;;;;;4.65;55.12;100210.94;1700394;84;21385;-69
2021/04/27 00:39:51;;;;;;;11.28;4.80;;;;;;;4.67;54.90;100212.12;1700474;84;21297;-68
2021/04/27 00:42:29;;;;;;;7.78;3.90;;;;;;;4.67;54.79;100210.27;1700310;84;21051;-69
2021/04/27 00:44:57;;;;;;;7.60;3.35;;;;;;;4.69;54.89;100210.95;1700193;84;21329;-69
2021/04/27 00:47:24;;;;;;;7.55;2.98;;;;;;;4.70;54.79;100215.88;1700451;84;21363;-68
2021/04/27 00:49:53;;;;;;;5.47;2.83;;;;;;;4.69;54.76;100209.59;1700548;84;21073;-69
2021/04/27 00:52:23;;;;;;;6.17;2.50;;;;;;;4.66;54.87;100210.42;1700463;84;21169;-69
2021/04/27 00:54:53;;;;;;;6.62;2.67;;;;;;;4.65;55.01;100214.16;1700438;84;21198;-69
2021/04/27 00:57:22;;;;;;;5.70;2.70;;;;;;;4.62;55.27;100205.84;1700551;84;21078;-68
2021/04/27 00:59:52;;;;;;;7.05;2.70;;;;;;;4.62;55.39;100213.13;1700494;84;21354;-68
2021/04/27 01:02:19;;;;;;;5.65;2.42;;;;;;;4.64;55.51;100212.45;1700414;84;21165;-69
2021/04/27 01:04:47;;;;;;;4.33;2.40;;;;;;;4.64;55.67;100216.02;1700358;84;21326;-68
2021/04/27 01:07:14;;;;;;;4.67;2.40;;;;;;;4.62;55.84;100219.41;1700332;84;21042;-69
2021/04/27 01:09:43;;;;;;;4.53;2.20;;;;;;;4.61;55.90;100210.92;1700476;84;21336;-69
2021/04/27 01:12:29;;;;;;;3.77;2.00;;;;;;;4.61;56.02;100218.21;1702522;84;21110;-69
2021/04/27 01:15:11;;;;;;;5.25;2.02;;;;;;;4.63;56.16;100217.54;1702761;84;21299;-68
2021/04/27 01:17:39;;;;;;;5.75;2.55;;;;;;;4.65;56.15;100227.22;1702722;84;21445;-69
2021/04/27 01:20:21;;;;;;;4.37;2.25;;;;;;;4.64;56.15;100216.02;1674810;85;21273;-68
2021/04/27 01:23:04;;;;;;;6.05;2.45;;;;;;;4.64;56.22;100217.88;1702457;83;21062;-69
2021/04/27 01:25:58;;;;;;;5.15;2.55;;;;;;;4.59;56.36;100215.66;1702714;84;21122;-68
2021/04/27 01:28:27;;;;;;;4.95;2.70;;;;;;;4.55;56.65;100221.55;1702639;84;21070;-68
2021/04/27 01:30:55;;;;;;;5.58;2.85;;;;;;;4.49;56.87;100209.99;1659373;85;21328;-69
2021/04/27 01:33:26;;;;;;;5.15;2.70;;;;;;;4.48;57.03;100221.34;1703024;84;21207;-67
2021/04/27 01:35:56;;;;;;;5.10;2.47;;;;;;;4.47;57.12;100222.36;1702776;84;21192;-69
2021/04/27 01:38:25;;;;;;;6.08;2.65;;;;;;;4.48;57.21;100224.57;1702846;84;21138;-68
2021/04/27 01:40:53;;;;;;;4.80;2.45;;;;;;;4.46;57.42;100230.16;1702689;84;21196;-69
2021/04/27 01:43:21;;;;;;;5.92;2.83;;;;;;;4.45;57.54;100223.87;1674788;84;21066;-69
2021/04/27 01:46:02;;;;;;;10.20;2.27;;;;;;;4.38;57.71;100228.25;1703033;83;21844;-69
2021/04/27 01:48:33;;;;;;;3.52;2.17;;;;;;;4.35;57.95;100224.52;1648620;85;21801;-68
2021/04/27 01:51:04;;;;;;;3.67;2.00;;;;;;;4.34;58.08;100230.09;1632006;85;21129;-69
2021/04/27 01:53:50;;;;;;;4.20;2.42;;;;;;;4.33;58.21;100226.53;1674767;85;21106;-70
2021/04/27 01:56:17;;;;;;;5.30;2.27;;;;;;;4.31;58.43;100234.49;1681407;84;21137;-68
2021/04/27 01:58:45;;;;;;;3.87;2.27;;;;;;;4.24;58.61;100226.15;1674451;85;21101;-67
2021/04/27 02:01:13;;;;;;;4.00;2.20;;;;;;;4.24;58.78;100225.30;1647276;87;21065;-69
2021/04/27 02:03:44;;;;;;;5.20;2.72;;;;;;;4.20;58.91;100227.48;1674734;84;21204;-68
2021/04/27 02:06:29;;;;;;;6.87;3.00;;;;;;;4.16;59.03;100229.32;1674423;85;21879;-67
2021/04/27 02:09:02;;;;;;;4.15;2.15;;;;;;;4.16;59.18;100226.11;1647406;87;21801;-70
2021/04/27 02:11:36;;;;;;;4.40;2.27;;;;;;;4.21;59.19;100225.62;1686225;84;21054;-68
2021/04/27 02:14:05;;;;;;;5.75;2.67;;;;;;;4.25;59.19;100228.36;1717161;83;21467;-68
2021/04/27 02:16:54;;;;;;;4.62;2.30;;;;;;;4.27;59.15;100229.05;1729996;83;21050;-68
2021/04/27 02:19:26;;;;;;;3.90;2.30;;;;;;;4.28;59.16;100228.03;1731141;82;21180;-68
2021/04/27 02:22:00;;;;;;;7.42;2.37;;;;;;;4.23;59.20;100231.23;1695888;84;21094;-68
2021/04/27 02:24:30;;;;;;;6.83;2.10;;;;;;;4.19;59.28;100237.14;1673980;84;21094;-68
2021/04/27 02:26:57;;;;;;;4.25;2.20;;;;;;;4.10;59.56;100234.38;1695662;84;21812;-70
2021/04/27 02:29:27;;;;;;;4.25;2.25;;;;;;;4.07;59.74;100233.34;1695444;84;21070;-68
2021/04/27 02:31:56;;;;;;;6.60;2.60;;;;;;;4.10;59.86;100230.81;1721199;81;21867;-68
2021/04/27 02:34:24;;;;;;;6.62;2.70;;;;;;;4.14;59.94;100234.91;1724756;83;21085;-69
2021/04/27 02:36:53;;;;;;;5.28;2.35;;;;;;;4.17;60.00;100231.88;1724701;81;21165;-69
2021/04/27 02:39:25;;;;;;;4.40;2.50;;;;;;;4.20;60.07;100235.62;1723070;81;21891;-67
2021/04/27 02:41:52;;;;;;;3.77;2.30;;;;;;;4.22;60.11;100239.53;1724611;81;21341;-71
2021/04/27 02:44:38;;;;;;;3.80;1.98;;;;;;;4.16;60.22;100232.89;1724799;82;21254;-70
2021/04/27 02:47:06;;;;;;;3.90;2.30;;;;;;;4.09;60.46;100232.67;1724741;81;21090;-68
2021/04/27 02:49:34;;;;;;;5.10;2.55;;;;;;;4.07;60.64;100233.84;1724717;81;21345;-68
2021/04/27 02:52:04;;;;;;;3.90;2.17;;;;;;;4.06;60.79;100232.14;1724454;81;21995;-69
2021/04/27 02:54:33;;;;;;;4.37;2.45;;;;;;;4.02;60.89;100230.27;1724043;83;21090;-69
2021/04/27 02:57:01;;;;;;;5.05;1.87;;;;;;;4.02;61.02;100226.20;1724770;83;21069;-70
2021/04/27 02:59:30;;;;;;;3.55;2.27;;;;;;;4.03;61.15;100232.47;1723300;83;21043;-69
2021/04/27 03:01:58;;;;;;;4.72;2.10;;;;;;;4.04;61.34;100232.81;1701688;83;21077;-69
2021/04/27 03:04:26;;;;;;;3.83;2.25;;;;;;;4.02;61.41;100229.41;1724660;82;21073;-70
2021/04/27 03:06:55;;;;;;;3.72;2.10;;;;;;;4.02;61.49;100230.27;1723102;83;21094;-70
2021/04/27 03:09:24;;;;;;;6.42;2.42;;;;;;;4.03;61.58;100223.83;1723188;83;21034;-67
2021/04/27 03:11:52;;;;;;;6.58;2.50;;;;;;;4.03;61.74;100227.05;1714692;83;21122;-70
2021/04/27 03:14:19;;;;;;;4.78;2.47;;;;;;;3.98;61.84;100226.17;1743540;81;21425;-67
2021/04/27 03:16:48;;;;;;;5.65;2.70;;;;;;;3.91;62.05;100235.95;1743681;82;21078;-67
2021/04/27 03:19:15;;;;;;;5.97;2.33;;;;;;;3.85;62.36;100237.05;1743481;82;21069;-70
2021/04/27 03:21:45;;;;;;;5.97;2.35;;;;;;;3.83;62.51;100235.86;1699502;82;21479;-68
2021/04/27 03:24:12;;;;;;;7.85;2.17;;;;;;;3.81;62.67;100232.45;1700487;84;21254;-69
2021/04/27 03:26:40;;;;;;;4.65;2.15;;;;;;;3.81;62.82;100232.45;1700432;84;21102;-68
2021/04/27 03:29:21;;;;;;;7.20;2.45;;;;;;;3.87;62.89;100245.88;1698310;84;21047;-71
2021/04/27 03:31:50;;;;;;;5.05;2.50;;;;;;;3.93;62.83;100244.77;1699541;84;21883;-67
2021/04/27 03:34:18;;;;;;;4.62;2.87;;;;;;;3.98;62.86;100241.08;1700286;84;21030;-68
2021/04/27 03:36:46;;;;;;;7.42;2.37;;;;;;;4.03;62.79;100239.24;1700396;84;21184;-70
2021/04/27 03:39:13;;;;;;;5.40;2.47;;;;;;;4.05;62.75;100234.01;1700494;84;21074;-70
2021/04/27 03:41:41;;;;;;;3.72;2.30;;;;;;;4.07;62.75;100241.47;1700412;84;21292;-69
2021/04/27 03:44:08;;;;;;;4.20;2.12;;;;;;;4.08;62.65;100243.69;1700381;84;21256;-70
2021/04/27 03:46:36;;;;;;;5.62;2.30;;;;;;;4.05;62.73;100244.00;1700525;84;21053;-69
2021/04/27 03:49:05;;;;;;;5.35;2.17;;;;;;;4.02;62.79;100251.09;1700435;84;21091;-71
2021/04/27 03:51:33;;;;;;;4.92;2.17;;;;;;;3.94;62.98;100249.18;1700448;84;21066;-68
2021/04/27 03:54:03;;;;;;;6.97;2.40;;;;;;;3.92;63.18;100255.27;1699786;84;21338;-69
2021/04/27 03:56:33;;;;;;;6.85;2.40;;;;;;;3.90;63.32;100254.58;1700150;84;21064;-68
2021/04/27 03:59:01;;;;;;;6.67;2.60;;;;;;;3.87;63.50;100252.15;1700440;84;21303;-68
2021/04/27 04:01:30;;;;;;;4.58;2.60;;;;;;;3.80;63.73;100251.08;1670076;84;21336;-69
2021/04/27 04:03:57;;;;;;;4.33;2.20;;;;;;;3.77;63.92;100251.39;1700406;84;21041;-70
2021/04/27 04:06:25;;;;;;;5.55;2.50;;;;;;;3.81;64.07;100256.84;1670143;84;21070;-69
2021/04/27 04:08:53;;;;;;;5.80;2.50;;;;;;;3.88;64.02;100249.78;1700509;84;21098;-71
2021/04/27 04:11:22;;;;;;;3.80;2.05;;;;;;;3.94;63.94;100250.53;1701448;84;21085;-70
2021/04/27 04:13:51;;;;;;;4.53;2.33;;;;;;;3.96;63.87;100249.02;1706061;84;21188;-69
2021/04/27 04:16:19;;;;;;;4.20;2.25;;;;;;;3.99;63.84;100249.55;1677386;84;21237;-70
2021/04/27 04:18:46;;;;;;;6.17;2.20;;;;;;;4.03;63.84;100250.94;1677567;84;21184;-68
2021/04/27 04:21:15;;;;;;;5.47;2.25;;;;;;;4.06;63.78;100247.91;1705936;84;21133;-71
2021/04/27 04:23:52;;;;;;;5.78;2.37;;;;;;;4.06;63.75;100249.77;1704803;82;21281;-69
2021/04/27 04:26:21;;;;;;;5.33;2.30;;;;;;;4.06;63.85;100248.41;1705996;84;21319;-71
2021/04/27 04:28:53;;;;;;;4.92;2.45;;;;;;;4.03;63.93;100242.80;1701258;82;21106;-69
2021/04/27 04:31:21;;;;;;;4.78;2.47;;;;;;;4.00;64.06;100249.05;1706041;84;21148;-69
2021/04/27 04:34:07;;;;;;;4.58;2.33;;;;;;;3.95;64.21;100245.97;1705815;84;21058;-68
2021/04/27 04:36:53;;;;;;;7.35;2.67;;;;;;;3.95;64.33;100241.39;1705966;84;21117;-68
2021/04/27 04:39:35;;;;;;;4.22;2.25;;;;;;;4.00;64.34;100243.63;1663381;84;21082;-69
2021/04/27 04:42:21;;;;;;;6.15;2.83;;;;;;;4.02;64.35;100241.10;1705607;84;21038;-68
2021/04/27 04:45:08;;;;;;;5.80;2.45;;;;;;;4.00;64.38;100240.41;1733469;82;21093;-69
2021/04/27 04:47:54;;;;;;;5.33;2.58;;;;;;;4.07;64.40;100236.05;1733656;82;21069;-70
2021/04/27 04:50:23;;;;;;;5.12;2.75;;;;;;;4.13;64.32;100248.97;1717132;82;21079;-69
2021/04/27 04:52:59;;;;;;;5.25;2.65;;;;;;;4.22;64.14;100247.66;1738493;82;21786;-69
2021/04/27 04:55:28;;;;;;;4.53;2.20;;;;;;;4.28;63.93;100251.08;1736115;82;21089;-70
2021/04/27 04:57:55;;;;;;;6.75;2.42;;;;;;;4.35;63.78;100257.56;1738504;82;21179;-70
2021/04/27 05:00:25;;;;;;;3.15;2.12;;;;;;;4.43;63.51;100263.03;1736324;82;21058;-69
2021/04/27 05:03:11;;;;;;;5.90;2.50;;;;;;;4.46;63.22;100260.84;1738321;82;21088;-71
2021/04/27 05:05:44;;;;;;;5.00;2.00;;;;;;;4.56;62.97;100260.75;1709028;82;21069;-70
2021/04/27 05:08:35;;;;;;;4.05;2.45;;;;;;;4.63;62.36;100260.45;1738325;82;21088;-68
2021/04/27 05:11:10;;;;;;;4.45;2.17;;;;;;;4.66;62.11;100270.13;1718210;82;21176;-68
2021/04/27 05:13:39;;;;;;;4.00;2.30;;;;;;;4.66;61.71;100261.98;1748803;81;21303;-69
2021/04/27 05:16:08;;;;;;;3.30;2.02;;;;;;;4.67;61.57;100265.89;1750400;81;21140;-71
2021/04/27 05:18:39;;;;;;;5.22;2.40;;;;;;;4.68;61.50;100267.59;1750319;82;21058;-69
2021/04/27 05:21:07;;;;;;;3.87;2.10;;;;;;;4.72;61.45;100273.04;1749090;81;21245;-71
2021/04/27 05:23:35;;;;;;;3.40;2.08;;;;;;;4.78;61.11;100266.95;1701398;83;21065;-69
2021/04/27 05:26:03;;;;;;;3.77;2.00;;;;;;;4.83;60.93;100266.47;1726743;83;21312;-69
2021/04/27 05:28:31;;;;;;;4.75;2.10;;;;;;;4.86;60.63;100265.28;1744733;82;21066;-70
2021/04/27 05:30:59;;;;;;;4.55;2.12;;;;;;;4.87;60.55;100268.34;1726583;83;21326;-70
2021/04/27 05:33:28;;;;;;;5.40;1.98;;;;;;;4.89;60.41;100271.74;1725864;83;21054;-70
2021/04/27 05:35:56;;;;;;;3.87;2.00;;;;;;;4.88;60.41;100265.97;1726616;83;21099;-70
2021/04/27 05:38:23;;;;;;;4.58;2.30;;;;;;;4.93;60.27;100274.47;1744755;82;21193;-68
2021/04/27 05:40:50;;;;;;;4.55;2.35;;;;;;;4.96;59.76;100268.20;1726627;83;21827;-69
2021/04/27 05:43:18;;;;;;;3.90;2.15;;;;;;;4.97;59.75;100279.41;1744665;82;21320;-69
2021/04/27 05:45:45;;;;;;;3.85;2.25;;;;;;;4.92;59.59;100274.13;1726648;83;21065;-69
2021/04/27 05:48:13;;;;;;;4.50;2.33;;;;;;;4.94;59.54;100269.38;1744578;82;21096;-68
2021/04/27 05:50:40;;;;;;;4.00;1.92;;;;;;;4.94;59.34;100266.67;1726582;83;21073;-69
2021/04/27 05:53:07;;;;;;;5.80;2.50;;;;;;;4.98;59.54;100263.97;1726599;83;21066;-69
2021/04/27 05:55:37;;;;;;;5.72;2.87;;;;;;;5.07;59.50;100266.54;1726615;83;21066;-68
2021/04/27 05:58:04;;;;;;;5.95;2.92;;;;;;;5.13;59.44;100262.31;1726662;83;21085;-68
2021/04/27 06:00:32;;;;;;;5.67;2.58;;;;;;;5.22;59.32;100265.42;1726820;83;21334;-70
2021/04/27 06:02:59;;;;;;;6.67;2.90;;;;;;;5.28;58.86;100266.11;1726692;83;21073;-69
2021/04/27 06:05:27;;;;;;;4.70;2.45;;;;;;;5.37;58.62;100261.54;1740155;82;21784;-69
2021/04/27 06:07:54;;;;;;;6.22;2.80;;;;;;;5.45;58.05;100262.06;1750512;82;21017;-70
2021/04/27 06:10:22;;;;;;;4.95;2.60;;;;;;;5.51;57.45;100264.10;1750282;82;21018;-68
2021/04/27 06:12:50;;;;;;;6.17;2.50;;;;;;;5.52;56.98;100268.52;1744469;82;21876;-68
2021/04/27 06:15:17;;;;;;;5.30;2.30;;;;;;;5.53;57.08;100264.78;1738232;82;21054;-69
2021/04/27 06:17:45;;;;;;;6.30;2.22;;;;;;;5.58;57.08;100267.84;1738285;82;21080;-68
2021/04/27 06:20:13;;;;;;;6.80;2.30;;;;;;;5.65;56.86;100261.56;1738342;82;21340;-68
2021/04/27 06:22:40;;;;;;;3.77;2.25;;;;;;;5.73;56.13;100263.43;1738382;82;21117;-69
2021/04/27 06:25:10;;;;;;;8.15;2.22;;;;;;;5.81;55.57;100256.63;1738576;82;21347;-69
2021/04/27 06:27:37;;;;;;;4.05;2.10;;;;;;;5.86;55.02;100252.07;1738316;81;21895;-68
2021/04/27 06:30:07;;;;;;;3.22;1.82;;;;;;;5.90;54.90;100258.39;1738389;82;21331;-69
2021/04/27 06:32:34;;;;;;;5.62;2.20;;;;;;;5.97;54.61;100251.75;1738533;82;21332;-69
2021/04/27 06:35:04;;;;;;;5.10;1.82;;;;;;;6.11;54.44;100267.37;1738295;82;21311;-69
2021/04/27 06:37:31;;;;;;;7.12;2.05;;;;;;;6.21;53.50;100257.67;1738351;82;21124;-70
2021/04/27 06:39:58;;;;;;;4.00;2.15;;;;;;;6.28;53.12;100255.95;1738447;82;21160;-70
2021/04/27 06:42:26;;;;;;;5.80;2.15;;;;;;;6.33;52.75;100261.72;1738470;82;21081;-69
2021/04/27 06:44:54;;;;;;;4.17;2.20;;;;;;;6.37;52.68;100258.98;1738462;82;21316;-70
2021/04/27 06:47:21;;;;;;;5.00;1.77;;;;;;;6.41;52.59;100264.42;1739973;81;21033;-69
2021/04/27 06:49:50;;;;;;;3.62;1.70;;;;;;;6.50;51.76;100265.24;1738584;81;21101;-69
2021/04/27 06:52:17;;;;;;;2.77;1.80;;;;;;;6.55;51.13;100262.88;1745642;81;21034;-69
2021/04/27 06:54:44;;;;;;;2.83;1.60;;;;;;;6.65;51.07;100261.65;1769325;81;21028;-68
2021/04/27 06:57:12;;;;;;;3.15;2.00;;;;;;;6.77;50.90;100259.39;1765519;81;21795;-68
2021/04/27 06:59:41;;;;;;;3.87;2.02;;;;;;;6.90;50.79;100256.95;1737013;82;21034;-69
2021/04/27 07:02:09;;;;;;;2.70;1.75;;;;;;;7.04;50.72;100255.34;1737006;81;21374;-70
2021/04/27 07:04:39;;;;;;;6.90;2.10;;;;;;;7.19;50.15;100258.19;1736841;82;21063;-68
2021/04/27 07:07:07;;;;;;;3.77;2.05;;;;;;;7.22;49.13;100254.59;1737031;82;21269;-71
2021/04/27 07:09:35;;;;;;;5.62;1.95;;;;;;;7.17;49.04;100253.43;1738593;81;21256;-71
2021/04/27 07:12:03;;;;;;;3.35;1.70;;;;;;;7.14;48.53;100258.69;1738277;81;21093;-70
2021/04/27 07:14:31;;;;;;;4.65;1.75;;;;;;;7.07;48.13;100253.63;1738337;82;21304;-71
2021/04/27 07:16:58;;;;;;;5.30;2.20;;;;;;;7.03;48.01;100251.44;1740182;82;21101;-71
2021/04/27 07:19:26;;;;;;;3.22;1.70;;;;;;;7.04;47.75;100258.06;1738351;82;21326;-69
2021/04/27 07:21:53;;;;;;;3.45;1.85;;;;;;;7.07;47.45;100254.98;1738320;82;21058;-69
2021/04/27 07:24:22;;;;;;;5.87;1.65;;;;;;;7.13;47.06;100252.06;1738349;82;21121;-69
2021/04/27 07:26:50;;;;;;;3.95;1.52;;;;;;;7.22;46.43;100257.31;1738322;82;21096;-69
2021/04/27 07:29:17;;;;;;;3.70;1.95;;;;;;;7.32;46.30;100259.81;1743987;81;21064;-69
2021/04/27 07:31:45;;;;;;;3.17;1.87;;;;;;;7.40;45.90;100262.48;1742797;81;21281;-71
2021/04/27 07:34:13;;;;;;;1.92;1.55;;;;;;;7.37;45.78;100255.17;1744047;81;21309;-68
2021/04/27 07:36:40;;;;;;;3.52;1.27;;;;;;;7.41;45.71;100256.52;1748459;82;21099;-69
2021/04/27 07:39:09;;;;;;;5.50;1.50;;;;;;;7.50;44.93;100251.33;1748323;81;21038;-69
2021/04/27 07:41:37;;;;;;;3.35;1.35;;;;;;;7.58;44.89;100258.09;1748403;82;21026;-69
2021/04/27 07:44:05;;;;;;;2.17;1.20;;;;;;;7.64;43.03;100260.94;1738307;81;21125;-69
2021/04/27 07:46:33;;;;;;;2.47;1.00;;;;;;;7.67;42.28;100255.64;1740349;82;21077;-70
2021/04/27 07:49:01;;;;;;;6.08;1.25;;;;;;;7.69;41.82;100268.57;1740873;82;21066;-71
2021/04/27 07:51:31;;;;;;;4.37;1.45;;;;;;;7.65;42.23;100254.97;1744946;82;21098;-69
2021/04/27 07:53:59;;;;;;;3.52;1.32;;;;;;;7.71;42.46;100244.70;1741051;81;21389;-69
2021/04/27 07:56:29;;;;;;;10.00;2.02;;;;;;;7.80;42.45;100244.98;1748538;82;21198;-67
2021/04/27 07:58:58;;;;;;;2.87;1.30;;;;;;;7.90;42.59;100251.03;1696855;82;21484;-70
2021/04/27 08:01:28;;;;;;;4.03;1.52;;;;;;;8.00;42.17;100248.05;1701802;84;21116;-68
2021/04/27 08:03:55;;;;;;;2.02;1.40;;;;;;;8.11;41.79;100258.52;1700903;84;21050;-69
2021/04/27 08:06:23;;;;;;;2.60;1.22;;;;;;;8.12;40.51;100253.91;1677324;85;21294;-66
2021/04/27 08:08:51;;;;;;;2.08;1.37;;;;;;;8.08;40.76;100255.31;1678667;84;21061;-76
2021/04/27 08:11:20;;;;;;;3.47;1.40;;;;;;;8.10;40.79;100245.06;1694527;84;21034;-69
2021/04/27 08:13:48;;;;;;;1.92;1.20;;;;;;;8.17;41.09;100241.91;1701755;84;21327;-75
2021/04/27 08:16:28;;;;;;;4.37;1.95;;;;;;;8.35;40.23;100239.70;1698261;84;21235;-79
2021/04/27 08:19:17;;;;;;;1.80;1.22;;;;;;;8.55;39.26;100245.48;1700150;84;21066;-70
2021/04/27 08:21:45;;;;;;;2.08;1.20;;;;;;;8.63;39.13;100249.48;1687089;84;21243;-67
2021/04/27 08:24:14;;;;;;;2.42;1.45;;;;;;;8.49;39.41;100247.09;1699108;84;21200;-68
2021/04/27 08:26:44;;;;;;;3.72;1.45;;;;;;;8.34;39.69;100232.55;1695404;84;21534;-71
2021/04/27 08:29:11;;;;;;;2.20;1.00;;;;;;;8.32;39.66;100236.47;1693761;84;21046;-71
2021/04/27 08:31:41;;;;;;;2.40;1.25;;;;;;;8.43;39.40;100224.59;1681459;84;21090;-73
2021/04/27 08:34:09;;;;;;;3.65;1.30;;;;;;;8.63;39.21;100217.23;1700084;84;21323;-72
2021/04/27 08:36:36;;;;;;;3.90;1.50;;;;;;;8.84;38.29;100229.59;1701573;84;21062;-75
2021/04/27 08:39:05;;;;;;;7.35;2.80;;;;;;;9.00;38.09;100231.26;1702875;83;21585;-70
2021/04/27 08:41:33;;;;;;;2.75;1.75;;;;;;;9.03;38.14;100236.34;1682449;84;21693;-69
2021/04/27 08:44:00;;;;;;;2.45;1.50;;;;;;;9.09;38.68;100236.42;1679567;84;21178;-71
2021/04/27 08:46:28;;;;;;;3.15;1.42;;;;;;;9.30;38.27;100219.75;1706384;82;21094;-72
2021/04/27 08:48:56;;;;;;;3.90;1.60;;;;;;;9.54;38.20;100228.42;1701376;82;21117;-72
2021/04/27 08:51:23;;;;;;;7.40;2.60;;;;;;;9.57;37.36;100214.88;1729944;83;21333;-68
2021/04/27 08:53:53;;;;;;;2.83;1.90;;;;;;;9.46;37.56;100222.23;1725785;83;21038;-69
2021/04/27 08:56:21;;;;;;;2.87;1.50;;;;;;;9.48;37.87;100222.88;1732879;82;21045;-68
2021/04/27 08:58:49;;;;;;;3.25;1.80;;;;;;;9.62;37.75;100227.45;1752452;81;21432;-67
2021/04/27 09:01:16;;;;;;;2.55;1.40;;;;;;;9.66;37.66;100226.01;1736711;81;21355;-68
2021/04/27 09:03:46;;;;;;;4.53;1.60;;;;;;;9.65;37.70;100225.69;1742993;81;21830;-71
2021/04/27 09:06:16;;;;;;;2.80;1.47;;;;;;;9.62;37.61;100220.61;1743231;81;21767;-70
2021/04/27 09:08:48;;;;;;;5.28;1.72;;;;;;;9.62;37.72;100216.50;1735456;82;21336;-69
2021/04/27 09:11:35;;;;;;;2.55;1.30;;;;;;;9.72;37.89;100213.44;1743321;82;21226;-70
2021/04/27 09:14:15;;;;;;;2.60;1.60;;;;;;;9.93;37.28;100219.44;1746786;81;21264;-71
2021/04/27 09:16:52;;;;;;;2.35;1.40;;;;;;;10.14;36.95;100211.17;1750786;81;21268;-77
2021/04/27 09:19:42;;;;;;;3.15;1.40;;;;;;;10.35;36.09;100211.66;1747739;81;21167;-70
2021/04/27 09:22:19;;;;;;;2.12;1.22;;;;;;;10.41;35.48;100212.27;1746501;81;21066;-72
2021/04/27 09:24:56;;;;;;;2.37;1.30;;;;;;;10.43;35.07;100200.58;1748860;81;21323;-73
2021/04/27 09:27:35;;;;;;;5.35;1.50;;;;;;;10.44;34.82;100201.75;1748728;82;21257;-71
2021/04/27 09:30:21;;;;;;;2.60;1.62;;;;;;;10.41;34.66;100207.63;1749088;82;21101;-77
2021/04/27 09:33:06;;;;;;;2.12;1.40;;;;;;;10.41;34.08;100206.78;1751118;82;21193;-66
2021/04/27 09:35:43;;;;;;;2.02;1.25;;;;;;;10.42;33.31;100207.11;1748817;82;21369;-70
2021/04/27 09:38:26;;;;;;;2.98;1.70;;;;;;;10.42;33.10;100203.84;1742232;81;21133;-71
2021/04/27 09:41:03;;;;;;;6.92;1.72;;;;;;;10.44;33.28;100210.48;1730535;82;21293;-69
2021/04/27 09:43:39;;;;;;;4.62;1.87;;;;;;;10.54;33.43;100207.38;1746863;81;21811;-70
2021/04/27 09:46:10;;;;;;;3.05;1.62;;;;;;;10.67;33.34;100206.92;1729812;82;21231;-72
2021/04/27 09:48:50;;;;;;;2.98;1.70;;;;;;;10.76;33.46;100198.86;1736385;82;21238;-74
2021/04/27 09:51:24;;;;;;;3.60;1.72;;;;;;;10.94;33.30;100209.27;1726646;82;20999;-74
2021/04/27 09:54:02;;;;;;;2.70;1.30;;;;;;;11.06;31.52;100218.62;1737335;82;21825;-73
2021/04/27 09:56:42;;;;;;;1.82;1.07;;;;;;;11.06;31.32;100206.28;1725580;82;21057;-76
2021/04/27 09:59:14;;;;;;;2.40;1.00;;;;;;;11.09;31.51;100215.46;1728485;82;21069;-78
2021/04/27 10:01:52;;;;;;;3.40;1.22;;;;;;;11.17;31.64;100203.47;1727338;82;21113;-73
2021/04/27 10:04:22;;;;;;;3.45;1.20;;;;;;;11.26;31.56;100198.64;1729111;82;21070;-73
2021/04/27 10:06:49;;;;;;;3.72;1.62;;;;;;;11.25;31.45;100200.53;1741211;82;21420;-71
2021/04/27 10:09:17;;;;;;;2.60;1.15;;;;;;;11.26;31.87;100198.64;1734540;82;21086;-71
2021/04/27 10:11:47;;;;;;;2.52;1.30;;;;;;;11.32;32.02;100203.30;1697178;83;21770;-71
2021/04/27 10:14:16;;;;;;;4.58;1.50;;;;;;;11.34;31.98;100203.41;1730842;82;21787;-69
2021/04/27 10:16:44;;;;;;;8.43;2.42;;;;;;;11.30;31.67;100198.02;1727906;81;21233;-73
2021/04/27 10:19:13;;;;;;;7.92;2.02;;;;;;;11.22;31.85;100193.25;1723775;82;21308;-70
2021/04/27 10:21:40;;;;;;;2.45;1.52;;;;;;;11.13;32.34;100204.09;1743964;81;21031;-71
2021/04/27 10:24:14;;;;;;;4.67;1.37;;;;;;;11.03;32.28;100202.55;1730351;82;21066;-68
2021/04/27 10:26:46;;;;;;;5.45;2.55;;;;;;;11.00;32.72;100202.95;1742531;82;21795;-72
2021/04/27 10:29:24;;;;;;;2.45;1.70;;;;;;;10.95;32.63;100206.84;1734532;82;21404;-73
2021/04/27 10:32:16;;;;;;;4.42;1.98;;;;;;;10.91;32.91;100197.33;1734067;82;21046;-73
2021/04/27 10:35:04;;;;;;;2.58;1.50;;;;;;;10.96;32.46;100203.58;1745206;82;21022;-74
2021/04/27 10:37:57;;;;;;;2.02;1.45;;;;;;;11.01;32.00;100196.95;1746936;82;21109;-69
2021/04/27 10:40:51;;;;;;;3.62;1.80;;;;;;;11.02;32.49;100193.16;1738601;82;21097;-70
2021/04/27 10:43:30;;;;;;;3.20;1.50;;;;;;;11.08;32.38;100195.95;1733405;82;21313;-72
2021/04/27 10:46:14;;;;;;;1.92;1.35;;;;;;;11.08;32.31;100190.47;1737516;82;21026;-72
2021/04/27 10:48:44;;;;;;;2.42;1.70;;;;;;;11.11;32.53;100191.42;1703804;82;21086;-73
2021/04/27 10:51:26;;;;;;;2.33;1.40;;;;;;;11.13;32.16;100197.23;1734596;82;21185;-72
2021/04/27 10:54:08;;;;;;;4.15;1.55;;;;;;;11.01;32.23;100196.95;1737487;81;21114;-73
2021/04/27 10:57:07;;;;;;;2.77;1.40;;;;;;;10.87;32.29;100186.98;1733296;82;21817;-70
2021/04/27 10:59:53;;;;;;;2.25;1.20;;;;;;;10.74;32.50;100187.78;1737373;81;21836;-72
2021/04/27 11:02:26;;;;;;;1.67;1.10;;;;;;;10.69;32.71;100184.28;1734831;81;21063;-70
2021/04/27 11:05:15;;;;;;;2.12;1.10;;;;;;;10.70;32.85;100197.45;1763794;81;21271;-70
2021/04/27 11:07:46;;;;;;;2.20;1.10;;;;;;;10.60;32.54;100193.72;1709436;83;21070;-71
2021/04/27 11:10:20;;;;;;;3.42;1.60;;;;;;;10.53;32.62;100187.36;1716276;83;21829;-69
2021/04/27 11:13:00;;;;;;;3.00;1.60;;;;;;;10.56;33.14;100188.84;1677160;85;21114;-69
2021/04/27 11:15:31;;;;;;;2.98;1.70;;;;;;;10.61;33.71;100183.08;1676646;84;21133;-71
2021/04/27 11:18:17;;;;;;;4.55;1.80;;;;;;;10.74;33.74;100187.78;1697520;84;21221;-67
2021/04/27 11:21:09;;;;;;;3.33;1.72;;;;;;;10.82;33.37;100183.48;1671319;85;21068;-71
2021/04/27 11:23:57;;;;;;;3.30;1.52;;;;;;;10.88;32.97;100183.20;1729053;82;21086;-70
2021/04/27 11:26:42;;;;;;;4.92;1.42;;;;;;;10.82;32.71;100183.48;1730358;83;21367;-69
2021/04/27 11:29:17;;;;;;;2.72;1.37;;;;;;;10.69;32.98;100179.33;1744436;81;21073;-72
2021/04/27 11:32:08;;;;;;;3.60;1.50;;;;;;;10.62;32.74;100175.19;1761267;81;21056;-68
2021/04/27 11:35:00;;;;;;;3.42;1.20;;;;;;;10.59;32.73;100174.75;1760804;81;21037;-69
2021/04/27 11:37:35;;;;;;;2.55;1.50;;;;;;;10.56;32.37;100172.41;1739656;81;22076;-71
2021/04/27 11:40:30;;;;;;;4.05;1.40;;;;;;;10.41;32.74;100167.91;1718910;82;21359;-68
2021/04/27 11:43:12;;;;;;;1.90;1.40;;;;;;;10.40;33.04;100162.61;1703104;84;21304;-72
2021/04/27 11:45:49;;;;;;;4.92;1.50;;;;;;;10.37;32.65;100167.12;1715414;81;21156;-70
2021/04/27 11:48:20;;;;;;;2.62;1.30;;;;;;;10.43;32.91;100158.13;1731326;83;21583;-70
2021/04/27 11:50:48;;;;;;;2.80;1.42;;;;;;;10.54;32.92;100163.55;1730339;82;21077;-70
2021/04/27 11:53:21;;;;;;;5.05;1.27;;;;;;;10.57;32.86;100154.92;1720452;82;21032;-71